sensor_id;sensor_type;location;lat;lon;timestamp;P1;durP1;ratioP1;P2;durP2;ratioP2
2011;SDS011;1009;51.436;6.972;2023-04-26T00:02:14;5.03;;;3.37;;
2011;SDS011;1009;51.436;6.972;2023-04-26T00:04:42;8.10;;;3.50;;
2011;SDS011;1009;51.436;6.972;2023-04-26T00:07:08;6.67;;;4.00;;
2011;SDS011;1009;51.436;6.972;2023-04-26T00:09:37;8.07;;;3.50;;
2011;SDS011;1009;51.436;6.972;2023-04-26T00:12:07;5.43;;;3.83;;
2011;SDS011;1009;51.436;6.972;2023-04-26T00:14:35;4.93;;;3.17;;
2011;SDS011;1009;51.436;6.972;2023-04-26T00:17:02;5.80;;;3.70;;
2011;SDS011;1009;51.436;6.972;2023-04-26T00:19:29;7.07;;;4.10;;
2011;SDS011;1009;51.436;6.972;2023-04-26T00:21:56;6.07;;;3.33;;
2011;SDS011;1009;51.436;6.972;2023-04-26T00:24:22;8.10;;;3.40;;
2011;SDS011;1009;51.436;6.972;2023-04-26T00:26:52;6.57;;;3.77;;
2011;SDS011;1009;51.436;6.972;2023-04-26T00:29:20;5.07;;;3.80;;
2011;SDS011;1009;51.436;6.972;2023-04-26T00:31:47;4.17;;;3.77;;
2011;SDS011;1009;51.436;6.972;2023-04-26T00:34:13;8.33;;;3.70;;
2011;SDS011;1009;51.436;6.972;2023-04-26T00:36:40;5.13;;;3.10;;
2011;SDS011;1009;51.436;6.972;2023-04-26T00:39:07;8.40;;;4.17;;
2011;SDS011;1009;51.436;6.972;2023-04-26T00:41:34;4.67;;;4.17;;
2011;SDS011;1009;51.436;6.972;2023-04-26T00:44:01;7.73;;;4.50;;
2011;SDS011;1009;51.436;6.972;2023-04-26T00:46:29;6.27;;;3.63;;
2011;SDS011;1009;51.436;6.972;2023-04-26T00:48:55;5.30;;;3.40;;
2011;SDS011;1009;51.436;6.972;2023-04-26T00:51:22;7.07;;;3.90;;
2011;SDS011;1009;51.436;6.972;2023-04-26T00:53:50;5.90;;;3.73;;
2011;SDS011;1009;51.436;6.972;2023-04-26T00:56:17;6.00;;;3.80;;
2011;SDS011;1009;51.436;6.972;2023-04-26T00:58:45;6.63;;;4.50;;
2011;SDS011;1009;51.436;6.972;2023-04-26T01:01:11;7.87;;;5.23;;
2011;SDS011;1009;51.436;6.972;2023-04-26T01:03:39;9.17;;;4.23;;
2011;SDS011;1009;51.436;6.972;2023-04-26T01:06:08;6.20;;;4.30;;
2011;SDS011;1009;51.436;6.972;2023-04-26T01:08:35;7.63;;;4.43;;
2011;SDS011;1009;51.436;6.972;2023-04-26T01:11:01;6.23;;;4.83;;
2011;SDS011;1009;51.436;6.972;2023-04-26T01:13:30;6.23;;;4.17;;
2011;SDS011;1009;51.436;6.972;2023-04-26T01:15:57;8.40;;;3.80;;
2011;SDS011;1009;51.436;6.972;2023-04-26T01:18:25;7.70;;;4.73;;
2011;SDS011;1009;51.436;6.972;2023-04-26T01:20:53;6.03;;;4.00;;
2011;SDS011;1009;51.436;6.972;2023-04-26T01:23:22;8.87;;;4.90;;
2011;SDS011;1009;51.436;6.972;2023-04-26T01:25:48;9.03;;;4.70;;
2011;SDS011;1009;51.436;6.972;2023-04-26T01:28:15;9.33;;;4.83;;
2011;SDS011;1009;51.436;6.972;2023-04-26T01:30:42;9.03;;;4.37;;
2011;SDS011;1009;51.436;6.972;2023-04-26T01:33:09;6.63;;;4.70;;
2011;SDS011;1009;51.436;6.972;2023-04-26T01:35:35;7.60;;;5.23;;
2011;SDS011;1009;51.436;6.972;2023-04-26T01:38:02;12.60;;;5.70;;
2011;SDS011;1009;51.436;6.972;2023-04-26T01:40:30;7.23;;;5.23;;
2011;SDS011;1009;51.436;6.972;2023-04-26T01:42:57;7.07;;;4.90;;
2011;SDS011;1009;51.436;6.972;2023-04-26T01:45:24;7.47;;;5.13;;
2011;SDS011;1009;51.436;6.972;2023-04-26T01:47:51;8.20;;;5.40;;
2011;SDS011;1009;51.436;6.972;2023-04-26T01:50:18;9.87;;;6.57;;
2011;SDS011;1009;51.436;6.972;2023-04-26T01:52:45;8.43;;;5.90;;
2011;SDS011;1009;51.436;6.972;2023-04-26T01:55:11;8.27;;;5.00;;
2011;SDS011;1009;51.436;6.972;2023-04-26T01:57:39;9.77;;;6.27;;
2011;SDS011;1009;51.436;6.972;2023-04-26T02:00:07;7.50;;;5.77;;
2011;SDS011;1009;51.436;6.972;2023-04-26T02:02:35;7.13;;;5.77;;
2011;SDS011;1009;51.436;6.972;2023-04-26T02:05:02;7.70;;;4.63;;
2011;SDS011;1009;51.436;6.972;2023-04-26T02:07:29;6.60;;;5.83;;
2011;SDS011;1009;51.436;6.972;2023-04-26T02:09:55;8.53;;;6.60;;
2011;SDS011;1009;51.436;6.972;2023-04-26T02:12:22;9.23;;;5.90;;
2011;SDS011;1009;51.436;6.972;2023-04-26T02:14:50;10.03;;;7.83;;
2011;SDS011;1009;51.436;6.972;2023-04-26T02:17:17;10.80;;;7.60;;
2011;SDS011;1009;51.436;6.972;2023-04-26T02:19:45;11.37;;;7.70;;
2011;SDS011;1009;51.436;6.972;2023-04-26T02:22:12;13.33;;;7.60;;
2011;SDS011;1009;51.436;6.972;2023-04-26T02:24:38;9.27;;;7.10;;
2011;SDS011;1009;51.436;6.972;2023-04-26T02:27:05;9.20;;;8.10;;
2011;SDS011;1009;51.436;6.972;2023-04-26T02:29:32;15.47;;;8.70;;
2011;SDS011;1009;51.436;6.972;2023-04-26T02:32:02;12.60;;;7.50;;
2011;SDS011;1009;51.436;6.972;2023-04-26T02:34:29;14.07;;;8.30;;
2011;SDS011;1009;51.436;6.972;2023-04-26T02:36:56;9.77;;;7.50;;
2011;SDS011;1009;51.436;6.972;2023-04-26T02:39:22;10.97;;;8.10;;
2011;SDS011;1009;51.436;6.972;2023-04-26T02:41:50;12.53;;;8.70;;
2011;SDS011;1009;51.436;6.972;2023-04-26T02:44:16;8.07;;;6.37;;
2011;SDS011;1009;51.436;6.972;2023-04-26T02:46:43;9.40;;;7.30;;
2011;SDS011;1009;51.436;6.972;2023-04-26T02:49:11;11.27;;;6.93;;
2011;SDS011;1009;51.436;6.972;2023-04-26T02:51:38;9.30;;;7.53;;
2011;SDS011;1009;51.436;6.972;2023-04-26T02:54:05;8.90;;;7.33;;
2011;SDS011;1009;51.436;6.972;2023-04-26T02:56:32;10.07;;;8.43;;
2011;SDS011;1009;51.436;6.972;2023-04-26T02:58:58;14.93;;;9.77;;
2011;SDS011;1009;51.436;6.972;2023-04-26T03:01:25;13.90;;;9.43;;
2011;SDS011;1009;51.436;6.972;2023-04-26T03:03:52;11.70;;;9.20;;
2011;SDS011;1009;51.436;6.972;2023-04-26T03:06:21;11.33;;;8.93;;
2011;SDS011;1009;51.436;6.972;2023-04-26T03:08:47;13.27;;;9.13;;
2011;SDS011;1009;51.436;6.972;2023-04-26T03:11:15;15.10;;;9.30;;
2011;SDS011;1009;51.436;6.972;2023-04-26T03:13:42;10.60;;;7.37;;
2011;SDS011;1009;51.436;6.972;2023-04-26T03:16:08;11.43;;;6.73;;
2011;SDS011;1009;51.436;6.972;2023-04-26T03:18:35;12.20;;;7.40;;
2011;SDS011;1009;51.436;6.972;2023-04-26T03:21:02;11.10;;;8.47;;
2011;SDS011;1009;51.436;6.972;2023-04-26T03:23:30;16.07;;;10.20;;
2011;SDS011;1009;51.436;6.972;2023-04-26T03:25:57;13.70;;;8.90;;
2011;SDS011;1009;51.436;6.972;2023-04-26T03:28:24;14.57;;;9.37;;
2011;SDS011;1009;51.436;6.972;2023-04-26T03:30:50;12.77;;;9.03;;
2011;SDS011;1009;51.436;6.972;2023-04-26T03:33:17;8.37;;;7.53;;
2011;SDS011;1009;51.436;6.972;2023-04-26T03:35:44;14.13;;;9.17;;
2011;SDS011;1009;51.436;6.972;2023-04-26T03:38:11;14.00;;;8.53;;
2011;SDS011;1009;51.436;6.972;2023-04-26T03:40:39;11.17;;;8.63;;
2011;SDS011;1009;51.436;6.972;2023-04-26T03:43:05;9.57;;;7.67;;
2011;SDS011;1009;51.436;6.972;2023-04-26T03:45:32;11.53;;;7.93;;
2011;SDS011;1009;51.436;6.972;2023-04-26T03:47:59;13.27;;;8.70;;
2011;SDS011;1009;51.436;6.972;2023-04-26T03:50:25;14.07;;;10.20;;
2011;SDS011;1009;51.436;6.972;2023-04-26T03:52:52;13.87;;;10.40;;
2011;SDS011;1009;51.436;6.972;2023-04-26T03:55:19;14.87;;;10.80;;
2011;SDS011;1009;51.436;6.972;2023-04-26T03:57:47;12.10;;;9.20;;
2011;SDS011;1009;51.436;6.972;2023-04-26T04:00:14;15.80;;;10.13;;
2011;SDS011;1009;51.436;6.972;2023-04-26T04:02:41;15.73;;;10.30;;
2011;SDS011;1009;51.436;6.972;2023-04-26T04:05:08;13.47;;;9.97;;
2011;SDS011;1009;51.436;6.972;2023-04-26T04:07:35;14.23;;;9.60;;
2011;SDS011;1009;51.436;6.972;2023-04-26T04:10:01;10.70;;;8.80;;
2011;SDS011;1009;51.436;6.972;2023-04-26T04:12:28;11.20;;;10.00;;
2011;SDS011;1009;51.436;6.972;2023-04-26T04:14:57;11.57;;;9.60;;
2011;SDS011;1009;51.436;6.972;2023-04-26T04:17:24;13.00;;;9.37;;
2011;SDS011;1009;51.436;6.972;2023-04-26T04:19:51;14.73;;;10.63;;
2011;SDS011;1009;51.436;6.972;2023-04-26T04:22:17;15.57;;;11.13;;
2011;SDS011;1009;51.436;6.972;2023-04-26T04:24:44;11.70;;;9.30;;
2011;SDS011;1009;51.436;6.972;2023-04-26T04:27:11;14.20;;;11.13;;
2011;SDS011;1009;51.436;6.972;2023-04-26T04:29:39;14.00;;;10.10;;
2011;SDS011;1009;51.436;6.972;2023-04-26T04:32:07;17.80;;;11.10;;
2011;SDS011;1009;51.436;6.972;2023-04-26T04:34:34;13.03;;;9.80;;
2011;SDS011;1009;51.436;6.972;2023-04-26T04:37:01;18.30;;;10.00;;
2011;SDS011;1009;51.436;6.972;2023-04-26T04:39:28;18.30;;;10.80;;
2011;SDS011;1009;51.436;6.972;2023-04-26T04:41:55;16.77;;;11.50;;
2011;SDS011;1009;51.436;6.972;2023-04-26T04:44:22;16.43;;;10.47;;
2011;SDS011;1009;51.436;6.972;2023-04-26T04:46:50;15.80;;;9.90;;
2011;SDS011;1009;51.436;6.972;2023-04-26T04:49:19;17.60;;;11.37;;
2011;SDS011;1009;51.436;6.972;2023-04-26T04:51:46;16.23;;;11.53;;
2011;SDS011;1009;51.436;6.972;2023-04-26T04:54:14;17.10;;;11.80;;
2011;SDS011;1009;51.436;6.972;2023-04-26T04:56:42;24.23;;;14.70;;
2011;SDS011;1009;51.436;6.972;2023-04-26T04:59:09;13.57;;;10.83;;
2011;SDS011;1009;51.436;6.972;2023-04-26T05:01:37;16.63;;;10.53;;
2011;SDS011;1009;51.436;6.972;2023-04-26T05:04:04;16.10;;;11.73;;
2011;SDS011;1009;51.436;6.972;2023-04-26T05:06:32;16.90;;;12.70;;
2011;SDS011;1009;51.436;6.972;2023-04-26T05:09:00;17.13;;;10.73;;
2011;SDS011;1009;51.436;6.972;2023-04-26T05:11:26;18.20;;;11.27;;
2011;SDS011;1009;51.436;6.972;2023-04-26T05:13:53;17.97;;;11.23;;
2011;SDS011;1009;51.436;6.972;2023-04-26T05:16:20;19.60;;;12.17;;
2011;SDS011;1009;51.436;6.972;2023-04-26T05:18:47;15.43;;;11.00;;
2011;SDS011;1009;51.436;6.972;2023-04-26T05:21:14;16.90;;;12.13;;
2011;SDS011;1009;51.436;6.972;2023-04-26T05:23:42;18.50;;;13.70;;
2011;SDS011;1009;51.436;6.972;2023-04-26T05:26:12;17.27;;;12.27;;
2011;SDS011;1009;51.436;6.972;2023-04-26T05:28:40;18.40;;;12.03;;
2011;SDS011;1009;51.436;6.972;2023-04-26T05:31:07;19.47;;;13.57;;
2011;SDS011;1009;51.436;6.972;2023-04-26T05:33:34;20.93;;;14.50;;
2011;SDS011;1009;51.436;6.972;2023-04-26T05:36:01;21.20;;;15.87;;
2011;SDS011;1009;51.436;6.972;2023-04-26T05:38:28;23.47;;;14.77;;
2011;SDS011;1009;51.436;6.972;2023-04-26T05:40:56;20.50;;;14.60;;
2011;SDS011;1009;51.436;6.972;2023-04-26T05:43:23;25.97;;;15.93;;
2011;SDS011;1009;51.436;6.972;2023-04-26T05:45:50;21.30;;;16.50;;
2011;SDS011;1009;51.436;6.972;2023-04-26T05:48:17;22.67;;;16.10;;
2011;SDS011;1009;51.436;6.972;2023-04-26T05:50:46;21.73;;;15.77;;
2011;SDS011;1009;51.436;6.972;2023-04-26T05:53:13;22.83;;;16.23;;
2011;SDS011;1009;51.436;6.972;2023-04-26T05:55:40;25.03;;;17.17;;
2011;SDS011;1009;51.436;6.972;2023-04-26T05:58:08;24.77;;;17.80;;
2011;SDS011;1009;51.436;6.972;2023-04-26T06:00:35;29.70;;;18.40;;
2011;SDS011;1009;51.436;6.972;2023-04-26T06:03:03;29.10;;;18.50;;
2011;SDS011;1009;51.436;6.972;2023-04-26T06:05:30;26.10;;;18.77;;
2011;SDS011;1009;51.436;6.972;2023-04-26T06:07:57;23.73;;;18.07;;
2011;SDS011;1009;51.436;6.972;2023-04-26T06:10:25;28.70;;;17.43;;
2011;SDS011;1009;51.436;6.972;2023-04-26T06:12:52;24.33;;;18.40;;
2011;SDS011;1009;51.436;6.972;2023-04-26T06:15:20;27.93;;;19.00;;
2011;SDS011;1009;51.436;6.972;2023-04-26T06:17:47;26.97;;;18.27;;
2011;SDS011;1009;51.436;6.972;2023-04-26T06:20:13;31.47;;;19.10;;
2011;SDS011;1009;51.436;6.972;2023-04-26T06:22:40;26.23;;;17.90;;
2011;SDS011;1009;51.436;6.972;2023-04-26T06:25:07;29.93;;;19.50;;
2011;SDS011;1009;51.436;6.972;2023-04-26T06:27:34;27.60;;;18.83;;
2011;SDS011;1009;51.436;6.972;2023-04-26T06:30:03;24.30;;;17.97;;
2011;SDS011;1009;51.436;6.972;2023-04-26T06:32:32;25.57;;;17.40;;
2011;SDS011;1009;51.436;6.972;2023-04-26T06:34:59;27.20;;;16.27;;
2011;SDS011;1009;51.436;6.972;2023-04-26T06:37:26;26.90;;;17.30;;
2011;SDS011;1009;51.436;6.972;2023-04-26T06:39:53;23.63;;;15.07;;
2011;SDS011;1009;51.436;6.972;2023-04-26T06:42:20;27.47;;;18.33;;
2011;SDS011;1009;51.436;6.972;2023-04-26T06:44:46;23.43;;;17.30;;
2011;SDS011;1009;51.436;6.972;2023-04-26T06:47:13;23.90;;;16.50;;
2011;SDS011;1009;51.436;6.972;2023-04-26T06:49:41;20.27;;;14.40;;
2011;SDS011;1009;51.436;6.972;2023-04-26T06:52:08;22.87;;;15.17;;
2011;SDS011;1009;51.436;6.972;2023-04-26T06:54:35;20.90;;;14.87;;
2011;SDS011;1009;51.436;6.972;2023-04-26T06:57:05;20.17;;;14.90;;
2011;SDS011;1009;51.436;6.972;2023-04-26T06:59:36;20.70;;;13.53;;
2011;SDS011;1009;51.436;6.972;2023-04-26T07:02:03;24.57;;;14.70;;
2011;SDS011;1009;51.436;6.972;2023-04-26T07:04:30;20.60;;;13.70;;
2011;SDS011;1009;51.436;6.972;2023-04-26T07:06:58;19.47;;;12.77;;
2011;SDS011;1009;51.436;6.972;2023-04-26T07:09:24;23.40;;;13.77;;
2011;SDS011;1009;51.436;6.972;2023-04-26T07:11:51;18.40;;;12.57;;
2011;SDS011;1009;51.436;6.972;2023-04-26T07:14:18;13.83;;;8.47;;
2011;SDS011;1009;51.436;6.972;2023-04-26T07:16:45;18.47;;;10.20;;
2011;SDS011;1009;51.436;6.972;2023-04-26T07:19:11;21.47;;;12.10;;
2011;SDS011;1009;51.436;6.972;2023-04-26T07:21:38;21.50;;;13.40;;
2011;SDS011;1009;51.436;6.972;2023-04-26T07:24:06;19.00;;;12.50;;
2011;SDS011;1009;51.436;6.972;2023-04-26T07:26:34;18.87;;;12.20;;
2011;SDS011;1009;51.436;6.972;2023-04-26T07:29:01;22.83;;;11.57;;
2011;SDS011;1009;51.436;6.972;2023-04-26T07:31:29;19.97;;;11.57;;
2011;SDS011;1009;51.436;6.972;2023-04-26T07:33:55;13.47;;;9.83;;
2011;SDS011;1009;51.436;6.972;2023-04-26T07:36:22;15.27;;;9.90;;
2011;SDS011;1009;51.436;6.972;2023-04-26T07:38:49;16.27;;;9.83;;
2011;SDS011;1009;51.436;6.972;2023-04-26T07:41:17;13.43;;;8.47;;
2011;SDS011;1009;51.436;6.972;2023-04-26T07:43:44;13.00;;;8.60;;
2011;SDS011;1009;51.436;6.972;2023-04-26T07:46:11;13.60;;;7.80;;
2011;SDS011;1009;51.436;6.972;2023-04-26T07:48:38;11.10;;;7.30;;
2011;SDS011;1009;51.436;6.972;2023-04-26T07:51:08;9.43;;;5.60;;
2011;SDS011;1009;51.436;6.972;2023-04-26T07:53:36;7.00;;;4.80;;
2011;SDS011;1009;51.436;6.972;2023-04-26T07:56:03;9.17;;;3.70;;
2011;SDS011;1009;51.436;6.972;2023-04-26T07:58:33;8.30;;;3.97;;
2011;SDS011;1009;51.436;6.972;2023-04-26T08:01:00;9.53;;;6.47;;
2011;SDS011;1009;51.436;6.972;2023-04-26T08:03:27;9.17;;;6.20;;
2011;SDS011;1009;51.436;6.972;2023-04-26T08:05:54;13.17;;;6.73;;
2011;SDS011;1009;51.436;6.972;2023-04-26T08:08:22;11.00;;;6.10;;
2011;SDS011;1009;51.436;6.972;2023-04-26T08:10:50;12.73;;;6.27;;
2011;SDS011;1009;51.436;6.972;2023-04-26T08:13:17;12.73;;;5.60;;
2011;SDS011;1009;51.436;6.972;2023-04-26T08:15:46;9.20;;;4.47;;
2011;SDS011;1009;51.436;6.972;2023-04-26T08:18:13;11.53;;;4.77;;
2011;SDS011;1009;51.436;6.972;2023-04-26T08:20:40;11.53;;;6.20;;
2011;SDS011;1009;51.436;6.972;2023-04-26T08:23:07;12.40;;;6.70;;
2011;SDS011;1009;51.436;6.972;2023-04-26T08:25:34;10.37;;;5.37;;
2011;SDS011;1009;51.436;6.972;2023-04-26T08:28:01;90.67;;;13.43;;
2011;SDS011;1009;51.436;6.972;2023-04-26T08:30:28;10.30;;;5.50;;
2011;SDS011;1009;51.436;6.972;2023-04-26T08:32:56;15.60;;;5.70;;
2011;SDS011;1009;51.436;6.972;2023-04-26T08:35:23;12.60;;;6.30;;
2011;SDS011;1009;51.436;6.972;2023-04-26T08:37:50;13.10;;;5.53;;
2011;SDS011;1009;51.436;6.972;2023-04-26T08:40:19;9.90;;;6.00;;
2011;SDS011;1009;51.436;6.972;2023-04-26T08:42:48;15.43;;;6.97;;
2011;SDS011;1009;51.436;6.972;2023-04-26T08:45:17;10.77;;;4.87;;
2011;SDS011;1009;51.436;6.972;2023-04-26T08:47:46;14.40;;;5.30;;
2011;SDS011;1009;51.436;6.972;2023-04-26T08:50:17;9.20;;;5.80;;
2011;SDS011;1009;51.436;6.972;2023-04-26T08:52:46;9.30;;;6.67;;
2011;SDS011;1009;51.436;6.972;2023-04-26T08:55:15;10.20;;;5.50;;
2011;SDS011;1009;51.436;6.972;2023-04-26T08:57:42;12.97;;;5.90;;
2011;SDS011;1009;51.436;6.972;2023-04-26T09:00:12;7.90;;;4.63;;
2011;SDS011;1009;51.436;6.972;2023-04-26T09:02:40;11.83;;;4.77;;
2011;SDS011;1009;51.436;6.972;2023-04-26T09:05:08;9.93;;;4.10;;
2011;SDS011;1009;51.436;6.972;2023-04-26T09:07:38;7.33;;;4.23;;
2011;SDS011;1009;51.436;6.972;2023-04-26T09:10:07;10.07;;;4.93;;
2011;SDS011;1009;51.436;6.972;2023-04-26T09:12:35;12.50;;;5.70;;
2011;SDS011;1009;51.436;6.972;2023-04-26T09:15:02;8.93;;;5.13;;
2011;SDS011;1009;51.436;6.972;2023-04-26T09:17:30;11.27;;;4.93;;
2011;SDS011;1009;51.436;6.972;2023-04-26T09:19:59;8.47;;;4.87;;
2011;SDS011;1009;51.436;6.972;2023-04-26T09:22:29;7.47;;;4.70;;
2011;SDS011;1009;51.436;6.972;2023-04-26T09:24:59;9.30;;;6.17;;
2011;SDS011;1009;51.436;6.972;2023-04-26T09:27:32;10.83;;;4.97;;
2011;SDS011;1009;51.436;6.972;2023-04-26T09:30:02;11.00;;;4.70;;
2011;SDS011;1009;51.436;6.972;2023-04-26T09:32:44;9.80;;;4.73;;
2011;SDS011;1009;51.436;6.972;2023-04-26T09:35:22;6.87;;;4.23;;
2011;SDS011;1009;51.436;6.972;2023-04-26T09:37:52;8.97;;;4.73;;
2011;SDS011;1009;51.436;6.972;2023-04-26T09:40:22;5.50;;;3.60;;
2011;SDS011;1009;51.436;6.972;2023-04-26T09:42:55;7.17;;;3.80;;
2011;SDS011;1009;51.436;6.972;2023-04-26T09:45:23;9.40;;;3.33;;
2011;SDS011;1009;51.436;6.972;2023-04-26T09:47:50;6.60;;;3.30;;
2011;SDS011;1009;51.436;6.972;2023-04-26T09:53:01;5.30;;;2.60;;
2011;SDS011;1009;51.436;6.972;2023-04-26T09:55:30;4.40;;;2.40;;
2011;SDS011;1009;51.436;6.972;2023-04-26T09:57:57;6.43;;;3.63;;
2011;SDS011;1009;51.436;6.972;2023-04-26T10:00:25;8.37;;;3.10;;
2011;SDS011;1009;51.436;6.972;2023-04-26T10:02:52;4.57;;;2.30;;
2011;SDS011;1009;51.436;6.972;2023-04-26T10:05:21;4.90;;;2.63;;
2011;SDS011;1009;51.436;6.972;2023-04-26T10:07:48;3.67;;;2.17;;
2011;SDS011;1009;51.436;6.972;2023-04-26T10:10:15;4.50;;;2.60;;
2011;SDS011;1009;51.436;6.972;2023-04-26T10:12:44;5.03;;;2.57;;
2011;SDS011;1009;51.436;6.972;2023-04-26T10:15:11;3.60;;;2.40;;
2011;SDS011;1009;51.436;6.972;2023-04-26T10:17:38;4.63;;;2.60;;
2011;SDS011;1009;51.436;6.972;2023-04-26T10:20:07;7.70;;;3.10;;
2011;SDS011;1009;51.436;6.972;2023-04-26T10:22:38;4.53;;;2.40;;
2011;SDS011;1009;51.436;6.972;2023-04-26T10:25:09;7.50;;;3.03;;
2011;SDS011;1009;51.436;6.972;2023-04-26T10:27:47;5.70;;;2.57;;
2011;SDS011;1009;51.436;6.972;2023-04-26T10:30:15;5.03;;;3.30;;
2011;SDS011;1009;51.436;6.972;2023-04-26T10:35:41;3.93;;;2.70;;
2011;SDS011;1009;51.436;6.972;2023-04-26T10:38:29;4.70;;;2.47;;
2011;SDS011;1009;51.436;6.972;2023-04-26T10:43:56;5.23;;;2.20;;
2011;SDS011;1009;51.436;6.972;2023-04-26T10:46:32;4.00;;;2.43;;
2011;SDS011;1009;51.436;6.972;2023-04-26T10:49:13;10.23;;;3.47;;
2011;SDS011;1009;51.436;6.972;2023-04-26T10:54:46;7.43;;;2.93;;
2011;SDS011;1009;51.436;6.972;2023-04-26T10:57:14;6.97;;;3.33;;
2011;SDS011;1009;51.436;6.972;2023-04-26T11:05:37;9.47;;;2.90;;
2011;SDS011;1009;51.436;6.972;2023-04-26T11:08:06;4.67;;;3.23;;
2011;SDS011;1009;51.436;6.972;2023-04-26T11:10:40;5.83;;;3.03;;
2011;SDS011;1009;51.436;6.972;2023-04-26T11:13:07;4.70;;;3.10;;
2011;SDS011;1009;51.436;6.972;2023-04-26T11:15:34;6.57;;;2.90;;
2011;SDS011;1009;51.436;6.972;2023-04-26T11:18:03;6.00;;;3.50;;
2011;SDS011;1009;51.436;6.972;2023-04-26T11:20:31;4.87;;;3.20;;
2011;SDS011;1009;51.436;6.972;2023-04-26T11:22:58;7.00;;;3.60;;
2011;SDS011;1009;51.436;6.972;2023-04-26T11:25:26;8.83;;;3.57;;
2011;SDS011;1009;51.436;6.972;2023-04-26T11:27:56;5.10;;;2.90;;
2011;SDS011;1009;51.436;6.972;2023-04-26T11:30:27;7.23;;;3.30;;
2011;SDS011;1009;51.436;6.972;2023-04-26T11:32:55;6.40;;;3.50;;
2011;SDS011;1009;51.436;6.972;2023-04-26T11:35:24;6.67;;;2.90;;
2011;SDS011;1009;51.436;6.972;2023-04-26T11:37:53;8.03;;;3.83;;
2011;SDS011;1009;51.436;6.972;2023-04-26T11:40:26;7.17;;;3.83;;
2011;SDS011;1009;51.436;6.972;2023-04-26T11:42:53;7.40;;;3.70;;
2011;SDS011;1009;51.436;6.972;2023-04-26T11:45:20;6.20;;;3.00;;
2011;SDS011;1009;51.436;6.972;2023-04-26T11:47:46;5.40;;;3.20;;
2011;SDS011;1009;51.436;6.972;2023-04-26T11:50:13;5.03;;;3.13;;
2011;SDS011;1009;51.436;6.972;2023-04-26T11:52:42;7.57;;;3.43;;
2011;SDS011;1009;51.436;6.972;2023-04-26T11:55:09;5.97;;;3.00;;
2011;SDS011;1009;51.436;6.972;2023-04-26T11:57:36;4.20;;;3.10;;
2011;SDS011;1009;51.436;6.972;2023-04-26T12:00:09;2.93;;;2.30;;
2011;SDS011;1009;51.436;6.972;2023-04-26T12:02:38;7.73;;;4.60;;
2011;SDS011;1009;51.436;6.972;2023-04-26T12:05:08;5.10;;;2.57;;
2011;SDS011;1009;51.436;6.972;2023-04-26T12:07:35;9.63;;;3.50;;
2011;SDS011;1009;51.436;6.972;2023-04-26T12:10:16;5.53;;;2.70;;
2011;SDS011;1009;51.436;6.972;2023-04-26T12:12:47;6.10;;;2.87;;
2011;SDS011;1009;51.436;6.972;2023-04-26T12:15:15;5.70;;;3.47;;
2011;SDS011;1009;51.436;6.972;2023-04-26T12:17:54;5.13;;;2.90;;
2011;SDS011;1009;51.436;6.972;2023-04-26T12:20:30;8.67;;;3.47;;
2011;SDS011;1009;51.436;6.972;2023-04-26T12:22:59;7.13;;;3.10;;
2011;SDS011;1009;51.436;6.972;2023-04-26T12:25:28;6.37;;;3.00;;
2011;SDS011;1009;51.436;6.972;2023-04-26T12:27:55;4.97;;;3.13;;
2011;SDS011;1009;51.436;6.972;2023-04-26T12:30:23;6.33;;;2.87;;
2011;SDS011;1009;51.436;6.972;2023-04-26T12:32:51;7.00;;;3.20;;
2011;SDS011;1009;51.436;6.972;2023-04-26T12:35:17;5.30;;;3.03;;
2011;SDS011;1009;51.436;6.972;2023-04-26T12:37:44;4.40;;;2.80;;
2011;SDS011;1009;51.436;6.972;2023-04-26T12:40:12;8.50;;;4.27;;
2011;SDS011;1009;51.436;6.972;2023-04-26T12:42:41;6.63;;;3.27;;
2011;SDS011;1009;51.436;6.972;2023-04-26T12:45:08;6.33;;;3.27;;
2011;SDS011;1009;51.436;6.972;2023-04-26T12:47:35;6.70;;;3.37;;
2011;SDS011;1009;51.436;6.972;2023-04-26T12:50:02;4.20;;;2.90;;
2011;SDS011;1009;51.436;6.972;2023-04-26T12:52:29;12.80;;;3.60;;
2011;SDS011;1009;51.436;6.972;2023-04-26T12:54:57;12.40;;;4.30;;
2011;SDS011;1009;51.436;6.972;2023-04-26T12:57:24;4.90;;;3.23;;
2011;SDS011;1009;51.436;6.972;2023-04-26T12:59:52;4.83;;;3.43;;
2011;SDS011;1009;51.436;6.972;2023-04-26T13:02:19;6.20;;;3.53;;
2011;SDS011;1009;51.436;6.972;2023-04-26T13:04:46;6.40;;;3.57;;
2011;SDS011;1009;51.436;6.972;2023-04-26T13:07:12;8.07;;;4.33;;
2011;SDS011;1009;51.436;6.972;2023-04-26T13:09:40;8.50;;;3.77;;
2011;SDS011;1009;51.436;6.972;2023-04-26T13:12:07;5.27;;;3.23;;
2011;SDS011;1009;51.436;6.972;2023-04-26T13:14:33;5.60;;;3.30;;
2011;SDS011;1009;51.436;6.972;2023-04-26T13:17:04;7.23;;;3.30;;
2011;SDS011;1009;51.436;6.972;2023-04-26T13:19:32;5.43;;;3.67;;
2011;SDS011;1009;51.436;6.972;2023-04-26T13:24:28;5.63;;;3.37;;
2011;SDS011;1009;51.436;6.972;2023-04-26T13:26:55;5.60;;;3.70;;
2011;SDS011;1009;51.436;6.972;2023-04-26T13:29:23;6.33;;;3.37;;
2011;SDS011;1009;51.436;6.972;2023-04-26T13:31:50;6.77;;;3.80;;
2011;SDS011;1009;51.436;6.972;2023-04-26T13:34:18;8.77;;;3.70;;
2011;SDS011;1009;51.436;6.972;2023-04-26T13:36:46;7.27;;;4.20;;
2011;SDS011;1009;51.436;6.972;2023-04-26T13:39:12;6.57;;;3.47;;
2011;SDS011;1009;51.436;6.972;2023-04-26T13:41:40;12.23;;;3.63;;
2011;SDS011;1009;51.436;6.972;2023-04-26T13:44:07;6.20;;;3.80;;
2011;SDS011;1009;51.436;6.972;2023-04-26T13:46:33;6.47;;;2.80;;
2011;SDS011;1009;51.436;6.972;2023-04-26T13:49:00;10.73;;;4.07;;
2011;SDS011;1009;51.436;6.972;2023-04-26T13:51:29;5.80;;;3.30;;
2011;SDS011;1009;51.436;6.972;2023-04-26T13:53:56;5.30;;;3.47;;
2011;SDS011;1009;51.436;6.972;2023-04-26T13:56:23;4.90;;;3.50;;
2011;SDS011;1009;51.436;6.972;2023-04-26T13:58:53;6.70;;;3.27;;
2011;SDS011;1009;51.436;6.972;2023-04-26T14:01:20;7.73;;;3.53;;
2011;SDS011;1009;51.436;6.972;2023-04-26T14:03:47;4.97;;;2.90;;
2011;SDS011;1009;51.436;6.972;2023-04-26T14:06:14;5.80;;;4.00;;
2011;SDS011;1009;51.436;6.972;2023-04-26T14:08:42;5.63;;;3.63;;
2011;SDS011;1009;51.436;6.972;2023-04-26T14:11:09;7.50;;;3.37;;
2011;SDS011;1009;51.436;6.972;2023-04-26T14:13:37;8.27;;;4.10;;
2011;SDS011;1009;51.436;6.972;2023-04-26T14:16:03;6.27;;;3.83;;
2011;SDS011;1009;51.436;6.972;2023-04-26T14:18:30;6.43;;;3.87;;
2011;SDS011;1009;51.436;6.972;2023-04-26T14:20:57;5.63;;;3.80;;
2011;SDS011;1009;51.436;6.972;2023-04-26T14:23:24;5.83;;;3.57;;
2011;SDS011;1009;51.436;6.972;2023-04-26T14:25:52;6.00;;;3.93;;
2011;SDS011;1009;51.436;6.972;2023-04-26T14:28:19;7.30;;;4.50;;
2011;SDS011;1009;51.436;6.972;2023-04-26T14:30:46;8.47;;;4.50;;
2011;SDS011;1009;51.436;6.972;2023-04-26T14:33:12;7.00;;;4.10;;
2011;SDS011;1009;51.436;6.972;2023-04-26T14:35:39;6.70;;;4.17;;
2011;SDS011;1009;51.436;6.972;2023-04-26T14:38:09;6.70;;;3.83;;
2011;SDS011;1009;51.436;6.972;2023-04-26T14:40:37;5.87;;;3.90;;
2011;SDS011;1009;51.436;6.972;2023-04-26T14:43:05;9.17;;;4.60;;
2011;SDS011;1009;51.436;6.972;2023-04-26T14:45:32;7.10;;;4.47;;
2011;SDS011;1009;51.436;6.972;2023-04-26T14:47:59;8.63;;;4.60;;
2011;SDS011;1009;51.436;6.972;2023-04-26T14:50:26;8.40;;;4.40;;
2011;SDS011;1009;51.436;6.972;2023-04-26T14:52:52;9.90;;;5.23;;
2011;SDS011;1009;51.436;6.972;2023-04-26T14:55:20;6.80;;;5.00;;
2011;SDS011;1009;51.436;6.972;2023-04-26T14:57:47;9.37;;;4.70;;
2011;SDS011;1009;51.436;6.972;2023-04-26T15:00:16;13.70;;;4.33;;
2011;SDS011;1009;51.436;6.972;2023-04-26T15:02:43;5.73;;;4.90;;
2011;SDS011;1009;51.436;6.972;2023-04-26T15:05:10;7.47;;;5.43;;
2011;SDS011;1009;51.436;6.972;2023-04-26T15:07:37;6.83;;;4.07;;
2011;SDS011;1009;51.436;6.972;2023-04-26T15:10:04;6.70;;;4.10;;
2011;SDS011;1009;51.436;6.972;2023-04-26T15:12:33;6.93;;;3.90;;
2011;SDS011;1009;51.436;6.972;2023-04-26T15:15:00;8.27;;;4.67;;
2011;SDS011;1009;51.436;6.972;2023-04-26T15:17:29;7.90;;;3.80;;
2011;SDS011;1009;51.436;6.972;2023-04-26T15:19:57;7.20;;;4.57;;
2011;SDS011;1009;51.436;6.972;2023-04-26T15:22:23;5.23;;;4.40;;
2011;SDS011;1009;51.436;6.972;2023-04-26T15:24:51;6.30;;;4.30;;
2011;SDS011;1009;51.436;6.972;2023-04-26T15:27:18;8.07;;;4.57;;
2011;SDS011;1009;51.436;6.972;2023-04-26T15:29:44;8.53;;;4.30;;